Time;durP1;ratioP1;P1;durP2;ratioP2;P2;SDS_P1;SDS_P2;PMS_P1;PMS_P2;Temp;Humidity;BMP_temperature;BMP_pressure;BME280_temperature;BME280_humidity;BME280_pressure;Samples;Min_cycle;Max_cycle;Signal;HPM_P1;HPM_P2
2021/12/16 00:03:28;;;;;;;4.13;3.83;;;14.20;62.70;15.30;102545.00;;;;4966300;28;20580;-44
2021/12/16 00:11:01;;;;;;;4.60;4.20;;;14.20;62.70;15.30;102552.00;;;;4970723;28;20189;-43
2021/12/16 00:31:02;;;;;;;4.43;4.03;;;14.20;62.60;15.30;102560.00;;;;4947561;29;20453;-43
2021/12/16 00:33:14;;;;;;;4.67;4.27;;;14.20;62.50;15.30;102556.00;;;;4947332;29;20204;-42
2021/12/16 00:35:43;;;;;;;4.37;3.97;;;14.20;62.50;15.30;102566.00;;;;4963003;28;20595;-42
2021/12/16 00:38:09;;;;;;;4.27;3.97;;;14.20;62.50;15.30;102558.00;;;;4969643;28;20208;-42
2021/12/16 00:40:40;;;;;;;4.30;3.90;;;14.20;62.70;15.30;102566.00;;;;4969607;28;20177;-42
2021/12/16 00:43:17;;;;;;;4.80;4.40;;;14.20;62.60;15.30;102546.00;;;;4969765;28;20613;-42
2021/12/16 00:56:07;;;;;;;4.20;3.90;;;14.10;62.40;15.30;102552.00;;;;4969545;28;20460;-43
2021/12/16 00:58:42;;;;;;;4.40;4.00;;;14.10;62.40;15.30;102569.00;;;;4969505;28;20260;-42
2021/12/16 01:01:24;;;;;;;4.50;4.10;;;14.10;62.40;15.30;102554.00;;;;4969554;28;20208;-43
2021/12/16 01:04:12;;;;;;;4.33;3.93;;;14.20;62.60;15.20;102567.00;;;;4969066;28;20707;-42
2021/12/16 01:10:03;;;;;;;4.10;3.70;;;14.20;62.50;15.20;102569.00;;;;4969697;28;20181;-43
2021/12/16 01:50:38;;;;;;;4.40;4.00;;;14.10;62.60;15.20;102589.00;;;;4967918;28;20235;-43
2021/12/16 01:55:44;;;;;;;4.40;4.10;;;14.10;62.70;15.20;102593.00;;;;4968042;28;20232;-43
2021/12/16 01:58:22;;;;;;;4.50;4.10;;;14.10;62.60;14.90;102591.00;;;;4968616;28;20238;-42
2021/12/16 02:01:19;;;;;;;4.23;3.93;;;14.10;62.50;15.20;102601.00;;;;4968756;28;20149;-42
2021/12/16 02:04:02;;;;;;;4.43;4.03;;;14.10;62.50;15.20;102605.00;;;;4968495;28;20272;-42
2021/12/16 02:09:38;;;;;;;4.30;4.00;;;14.10;62.70;15.20;102588.00;;;;4968344;28;20246;-42
2021/12/16 02:12:31;;;;;;;4.20;3.80;;;14.10;62.60;15.20;102591.00;;;;4968270;28;20260;-43
2021/12/16 02:28:54;;;;;;;4.10;3.80;;;14.10;62.60;15.20;102587.00;;;;4967752;28;20247;-43
2021/12/16 02:36:27;;;;;;;4.07;3.77;;;14.10;62.60;15.20;102586.00;;;;4967732;28;20177;-43
2021/12/16 02:39:09;;;;;;;4.27;3.97;;;14.00;62.70;15.20;102585.00;;;;4967812;28;20201;-43
2021/12/16 02:41:38;;;;;;;4.07;3.77;;;14.10;62.70;15.20;102592.00;;;;4967438;28;20629;-43
2021/12/16 02:44:14;;;;;;;4.23;3.93;;;14.00;62.50;15.10;102584.00;;;;4966827;28;20281;-44
2021/12/16 02:49:26;;;;;;;4.33;4.03;;;14.10;62.80;15.10;102591.00;;;;4967816;28;20176;-43
2021/12/16 02:51:52;;;;;;;3.90;3.60;;;14.10;62.60;15.10;102596.00;;;;4966793;28;20643;-44
2021/12/16 02:54:18;;;;;;;3.90;3.60;;;14.00;62.80;15.10;102591.00;;;;4967411;28;20635;-43
2021/12/16 02:56:44;;;;;;;4.37;4.07;;;14.00;62.50;15.10;102593.00;;;;4967343;28;20648;-43
2021/12/16 02:59:10;;;;;;;4.00;3.70;;;14.00;62.40;15.20;102598.00;;;;4967334;28;20251;-44
2021/12/16 03:01:41;;;;;;;4.33;3.93;;;14.10;62.70;15.20;102600.00;;;;4967396;28;20173;-43
2021/12/16 03:04:10;;;;;;;4.47;4.07;;;14.20;62.60;15.30;102600.00;;;;4965575;28;20212;-44
2021/12/16 03:06:37;;;;;;;4.27;3.87;;;14.40;62.50;15.40;102599.00;;;;4966662;28;20169;-44
2021/12/16 03:09:05;;;;;;;4.27;3.97;;;14.70;62.30;15.50;102603.00;;;;4966682;28;20366;-44
2021/12/16 03:11:46;;;;;;;4.30;3.90;;;14.90;61.90;15.60;102591.00;;;;4967188;28;20265;-44
2021/12/16 03:16:58;;;;;;;4.20;3.90;;;15.50;61.00;16.00;102601.00;;;;4967162;28;20312;-43
2021/12/16 03:19:45;;;;;;;3.90;3.60;;;15.70;60.60;16.10;102590.00;;;;4967045;28;20544;-43
2021/12/16 03:22:20;;;;;;;4.10;3.80;;;15.90;60.40;16.20;102586.00;;;;4966916;28;20263;-43
2021/12/16 03:35:53;;;;;;;3.87;3.57;;;16.10;60.50;16.60;102598.00;;;;4966457;28;20209;-43
2021/12/16 03:37:43;;;;;;;3.73;3.43;;;16.10;60.70;16.70;102605.00;;;;4959195;28;20291;-43
2021/12/16 03:40:13;;;;;;;4.00;3.70;;;16.10;60.70;16.70;102599.00;;;;4966896;28;20688;-43
2021/12/16 03:42:45;;;;;;;3.87;3.57;;;16.10;60.80;16.70;102605.00;;;;4967133;28;20536;-43
2021/12/16 03:48:26;;;;;;;3.73;3.43;;;16.10;61.00;16.80;102610.00;;;;4964382;28;20385;-42
2021/12/16 03:50:52;;;;;;;3.63;3.33;;;16.10;61.10;16.80;102600.00;;;;4966972;28;20160;-43
2021/12/16 03:53:18;;;;;;;3.70;3.40;;;16.10;61.20;16.80;102599.00;;;;4966765;28;20224;-42
2021/12/16 03:55:47;;;;;;;3.63;3.33;;;16.10;61.30;16.80;102602.00;;;;4966696;28;20439;-42
2021/12/16 03:58:13;;;;;;;3.63;3.33;;;16.00;61.30;16.80;102609.00;;;;4966323;28;20424;-43
2021/12/16 04:00:44;;;;;;;3.13;2.93;;;16.10;61.40;16.80;102604.00;;;;4966597;28;20422;-44
2021/12/16 04:03:10;;;;;;;3.77;3.47;;;16.00;61.60;16.80;102606.00;;;;4965288;28;20196;-42
2021/12/16 04:05:36;;;;;;;3.40;3.20;;;16.00;61.60;16.80;102605.00;;;;4966257;28;20176;-43
2021/12/16 04:08:02;;;;;;;3.40;3.20;;;16.00;61.60;16.80;102613.00;;;;4966307;28;20256;-42
2021/12/16 04:10:37;;;;;;;3.60;3.30;;;16.00;61.60;16.90;102608.00;;;;4966421;28;20264;-43
2021/12/16 04:13:05;;;;;;;3.60;3.30;;;16.00;61.60;16.80;102614.00;;;;4966178;28;20157;-43
2021/12/16 04:15:31;;;;;;;3.53;3.23;;;15.90;61.60;16.80;102619.00;;;;4948836;28;20556;-43
2021/12/16 04:17:57;;;;;;;3.50;3.20;;;15.90;61.70;16.80;102615.00;;;;4947245;28;20205;-42
2021/12/16 04:20:23;;;;;;;3.50;3.20;;;15.90;61.70;16.80;102628.00;;;;4945783;29;20170;-43
2021/12/16 04:22:49;;;;;;;3.73;3.43;;;15.90;61.80;16.80;102619.00;;;;4947523;28;20161;-43
2021/12/16 04:25:30;;;;;;;3.53;3.23;;;15.90;61.90;16.60;102613.00;;;;4946470;28;20185;-43
2021/12/16 04:27:59;;;;;;;3.70;3.40;;;15.90;61.90;16.80;102629.00;;;;4947449;28;20621;-43
2021/12/16 04:30:26;;;;;;;3.57;3.27;;;15.80;61.90;16.80;102631.00;;;;4947643;28;20174;-43
2021/12/16 04:32:52;;;;;;;3.87;3.57;;;15.80;61.90;16.80;102631.00;;;;4947026;28;20166;-43
2021/12/16 04:35:18;;;;;;;3.60;3.30;;;15.80;62.00;16.70;102545.00;;;;4946745;28;20178;-43
2021/12/16 04:37:44;;;;;;;3.63;3.33;;;15.80;62.20;16.80;102629.00;;;;4946723;28;20257;-42
2021/12/16 04:40:11;;;;;;;3.70;3.40;;;15.80;62.10;16.80;102629.00;;;;4946708;28;20344;-43
2021/12/16 04:42:37;;;;;;;3.83;3.53;;;15.80;62.10;16.80;102629.00;;;;4947237;28;20182;-43
2021/12/16 04:45:08;;;;;;;3.20;3.00;;;15.80;62.20;16.80;102640.00;;;;4946671;28;20743;-43
2021/12/16 04:47:34;;;;;;;3.37;3.17;;;15.80;62.20;16.70;102638.00;;;;4947312;28;20209;-43
2021/12/16 04:50:00;;;;;;;3.77;3.47;;;15.80;62.20;16.80;102646.00;;;;4946748;28;20208;-43
2021/12/16 04:52:25;;;;;;;3.50;3.20;;;15.70;62.20;16.70;102635.00;;;;4949795;28;20201;-43
2021/12/16 04:54:52;;;;;;;3.70;3.40;;;15.70;62.10;16.70;102646.00;;;;4950254;28;20458;-43
2021/12/16 04:57:18;;;;;;;3.50;3.27;;;15.70;62.10;16.70;102650.00;;;;4950306;28;20181;-43
2021/12/16 04:59:44;;;;;;;3.83;3.53;;;15.70;62.10;16.70;102640.00;;;;4948808;29;20261;-43
2021/12/16 05:02:16;;;;;;;3.57;3.27;;;15.70;62.10;16.70;102639.00;;;;4950155;28;20174;-43
2021/12/16 05:04:42;;;;;;;3.50;3.30;;;15.70;62.10;16.70;102656.00;;;;4950216;28;20492;-44
2021/12/16 05:07:08;;;;;;;3.93;3.63;;;15.70;62.20;16.70;102631.00;;;;4949908;28;20283;-42
2021/12/16 05:12:08;;;;;;;3.63;3.33;;;15.70;62.10;16.70;102639.00;;;;4950295;28;20280;-42
2021/12/16 05:14:34;;;;;;;3.70;3.40;;;15.60;62.00;16.70;102635.00;;;;4950012;28;20209;-43
2021/12/16 05:17:02;;;;;;;3.70;3.40;;;15.60;62.10;16.60;102635.00;;;;4949936;28;20184;-43
2021/12/16 05:19:28;;;;;;;3.50;3.30;;;15.60;62.30;16.60;102648.00;;;;4950189;28;20205;-42
2021/12/16 05:24:12;;;;;;;4.00;3.60;;;15.60;62.30;16.60;102629.00;;;;4949584;28;20174;-42
2021/12/16 05:24:40;;;;;;;3.93;3.63;;;15.60;62.20;16.60;102620.00;;;;4949534;28;20202;-42
2021/12/16 05:27:06;;;;;;;3.77;3.47;;;15.60;62.30;16.60;102628.00;;;;4949825;28;20548;-42
2021/12/16 05:29:32;;;;;;;4.00;3.70;;;15.50;62.30;16.60;102646.00;;;;4958700;28;20193;-43
2021/12/16 05:31:58;;;;;;;3.93;3.63;;;15.60;62.30;16.60;102628.00;;;;4969317;28;20191;-41
2021/12/16 05:34:24;;;;;;;3.70;3.40;;;15.50;62.30;16.60;102634.00;;;;4968568;28;20536;-43
2021/12/16 05:36:49;;;;;;;4.20;3.80;;;15.50;62.40;16.60;102646.00;;;;4969288;28;20686;-43
2021/12/16 05:39:15;;;;;;;4.00;3.70;;;15.50;62.30;16.60;102644.00;;;;4968472;28;20265;-43
2021/12/16 05:41:41;;;;;;;3.80;3.50;;;15.40;62.30;16.50;102654.00;;;;4969621;28;20243;-43
2021/12/16 05:44:07;;;;;;;4.27;3.87;;;15.50;62.30;16.60;102651.00;;;;4967655;28;20538;-43
2021/12/16 05:46:33;;;;;;;3.80;3.50;;;15.50;62.30;16.50;102648.00;;;;4949672;28;20684;-42
2021/12/16 05:48:59;;;;;;;3.80;3.50;;;15.40;62.30;16.50;102649.00;;;;4950481;28;20184;-44
2021/12/16 05:51:30;;;;;;;3.93;3.63;;;15.40;62.50;16.50;102650.00;;;;4949904;28;20189;-43
2021/12/16 05:53:56;;;;;;;4.00;3.70;;;15.40;62.30;16.50;102665.00;;;;4949591;28;20242;-43
2021/12/16 05:56:21;;;;;;;3.90;3.60;;;15.40;62.30;16.50;102658.00;;;;4949644;28;20653;-43
2021/12/16 05:58:47;;;;;;;4.20;3.80;;;15.40;62.50;16.50;102672.00;;;;4947054;29;20233;-44
2021/12/16 06:01:17;;;;;;;4.03;3.73;;;15.40;62.50;16.50;102682.00;;;;4949667;28;20616;-43
2021/12/16 06:03:43;;;;;;;5.67;4.07;;;15.40;62.60;16.50;102677.00;;;;4947706;28;20421;-42
2021/12/16 06:06:09;;;;;;;4.30;4.00;;;15.50;62.70;16.50;102684.00;;;;4949484;28;20429;-43
2021/12/16 06:08:34;;;;;;;4.57;3.93;;;15.40;62.80;16.50;102687.00;;;;4948797;28;20189;-42
2021/12/16 06:13:41;;;;;;;7.43;3.90;;;15.40;63.20;16.50;102697.00;;;;4948915;29;20865;-43
2021/12/16 06:29:33;;;;;;;4.33;3.90;;;15.40;63.10;16.40;102705.00;;;;4947963;28;20424;-43
2021/12/16 06:31:59;;;;;;;4.30;3.90;;;15.40;63.00;16.40;102697.00;;;;4948133;28;20174;-43
2021/12/16 06:34:25;;;;;;;4.93;4.07;;;15.30;63.00;16.40;102712.00;;;;4947959;29;20727;-44
2021/12/16 06:36:50;;;;;;;6.23;4.20;;;15.30;62.90;16.40;102712.00;;;;4947399;28;20358;-43
2021/12/16 06:39:16;;;;;;;4.47;3.97;;;15.20;63.00;16.40;102704.00;;;;4948430;28;20213;-43
2021/12/16 06:41:42;;;;;;;5.50;4.50;;;15.30;63.00;16.40;102703.00;;;;4947798;28;20185;-43
2021/12/16 06:44:36;;;;;;;4.60;4.20;;;15.30;62.90;16.40;102709.00;;;;4947665;28;20198;-43
2021/12/16 06:47:02;;;;;;;4.70;4.20;;;15.20;62.90;16.30;102703.00;;;;4947666;29;20699;-43
2021/12/16 06:49:29;;;;;;;4.57;4.17;;;15.30;63.00;16.30;102712.00;;;;4947657;28;20173;-43
2021/12/16 06:52:00;;;;;;;4.50;4.10;;;15.20;62.80;16.30;102696.00;;;;4946190;29;20162;-43
2021/12/16 06:54:31;;;;;;;5.00;4.50;;;15.20;63.00;16.30;102707.00;;;;4950190;28;20193;-43
2021/12/16 06:59:33;;;;;;;5.43;4.20;;;15.20;62.80;16.30;102713.00;;;;4949821;29;20201;-43
2021/12/16 07:04:35;;;;;;;4.73;4.33;;;15.20;62.90;16.30;102719.00;;;;4947902;28;20194;-42
2021/12/16 07:07:05;;;;;;;4.70;4.30;;;15.20;62.90;16.30;102717.00;;;;4946839;28;20659;-43
2021/12/16 07:09:31;;;;;;;5.10;4.40;;;15.20;62.90;16.30;102716.00;;;;4966096;28;20181;-43
2021/12/16 07:11:58;;;;;;;4.40;4.10;;;15.20;62.90;16.20;102717.00;;;;4969772;28;20184;-42
2021/12/16 07:14:35;;;;;;;4.93;4.43;;;15.10;62.90;16.00;102728.00;;;;4969056;28;20228;-42
2021/12/16 07:17:03;;;;;;;4.80;4.10;;;15.10;62.90;16.20;102730.00;;;;4970009;28;20683;-42
2021/12/16 07:19:29;;;;;;;4.90;4.37;;;15.10;63.70;16.20;102739.00;;;;4969021;28;20204;-43
2021/12/16 07:21:55;;;;;;;4.30;4.00;;;15.10;62.90;16.20;102736.00;;;;4969699;28;20228;-44
2021/12/16 07:24:20;;;;;;;4.73;4.30;;;15.10;62.90;16.20;102750.00;;;;4969419;28;20204;-42
2021/12/16 07:26:47;;;;;;;4.90;4.50;;;15.10;62.90;16.20;102751.00;;;;4969769;28;20260;-42
2021/12/16 07:29:12;;;;;;;4.70;4.30;;;15.10;62.90;16.20;102747.00;;;;4968380;28;20276;-42
2021/12/16 07:31:39;;;;;;;5.20;4.80;;;15.00;62.90;16.20;102760.00;;;;4969777;28;20252;-42
2021/12/16 07:34:06;;;;;;;5.33;4.83;;;15.10;62.80;16.20;102772.00;;;;4969656;28;20220;-42
2021/12/16 07:36:33;;;;;;;4.47;4.10;;;15.10;63.10;16.20;102775.00;;;;4969845;28;20208;-42
2021/12/16 07:38:59;;;;;;;5.00;4.60;;;15.10;63.00;16.20;102772.00;;;;4967865;28;20205;-44
2021/12/16 07:41:31;;;;;;;5.80;4.77;;;15.10;63.00;16.20;102771.00;;;;4952590;28;20253;-43
2021/12/16 07:44:10;;;;;;;5.07;4.57;;;15.10;63.10;16.20;102787.00;;;;4968547;28;20197;-42
2021/12/16 07:46:45;;;;;;;5.23;4.53;;;15.10;63.30;16.20;102782.00;;;;4950100;28;20185;-43
2021/12/16 07:49:17;;;;;;;5.23;4.73;;;15.10;63.40;16.10;102790.00;;;;4960011;28;20195;-42
2021/12/16 07:51:43;;;;;;;5.00;4.60;;;15.00;63.30;16.10;102788.00;;;;4957093;28;20181;-43
2021/12/16 07:54:09;;;;;;;6.17;4.70;;;15.00;63.10;16.10;102787.00;;;;4949711;28;20219;-43
2021/12/16 07:56:35;;;;;;;5.23;4.77;;;15.10;63.10;16.10;102791.00;;;;4950002;28;20427;-42
2021/12/16 07:59:01;;;;;;;5.17;4.67;;;15.00;62.90;16.10;102793.00;;;;4949924;28;20205;-43
2021/12/16 08:01:27;;;;;;;5.13;4.57;;;15.00;63.00;16.10;102803.00;;;;4969511;28;20239;-43
2021/12/16 08:03:53;;;;;;;4.90;4.40;;;15.00;63.00;16.10;102782.00;;;;4973238;28;20694;-42
2021/12/16 08:06:23;;;;;;;4.90;4.50;;;15.00;63.10;16.10;102790.00;;;;4968905;28;20165;-43
2021/12/16 08:08:50;;;;;;;4.83;4.43;;;15.00;63.10;16.10;102801.00;;;;4968382;28;20168;-43
2021/12/16 08:11:16;;;;;;;5.43;4.93;;;15.00;63.00;16.10;102792.00;;;;4968693;28;20185;-42
2021/12/16 08:13:42;;;;;;;5.83;4.97;;;15.00;63.20;16.10;102801.00;;;;4965815;28;20205;-42
2021/12/16 08:16:08;;;;;;;5.10;4.70;;;15.00;62.90;16.10;102802.00;;;;4949814;28;20189;-43
2021/12/16 08:18:33;;;;;;;5.47;4.97;;;15.00;62.70;16.10;102803.00;;;;4949061;28;20209;-44
2021/12/16 08:20:59;;;;;;;5.20;4.80;;;15.00;62.80;16.00;102801.00;;;;4948728;28;20321;-44
2021/12/16 08:23:25;;;;;;;5.23;4.83;;;14.90;62.60;16.00;102813.00;;;;4948832;28;20245;-43
2021/12/16 08:25:50;;;;;;;5.43;4.93;;;14.90;62.80;16.10;102814.00;;;;4952888;28;20178;-43
2021/12/16 08:28:16;;;;;;;5.60;5.10;;;14.90;63.00;16.00;102802.00;;;;4956286;28;20185;-43
2021/12/16 08:30:45;;;;;;;5.70;5.20;;;14.90;62.90;16.00;102806.00;;;;4972605;28;20636;-42
2021/12/16 08:33:12;;;;;;;5.40;5.00;;;14.90;63.00;16.00;102806.00;;;;4960060;28;20288;-43
2021/12/16 08:35:45;;;;;;;5.67;5.13;;;14.90;62.80;16.00;102796.00;;;;4952860;28;20182;-43
2021/12/16 08:38:12;;;;;;;5.50;5.00;;;14.90;63.00;16.10;102811.00;;;;4952476;28;20668;-44
2021/12/16 08:40:39;;;;;;;5.47;5.03;;;14.90;63.30;16.00;102809.00;;;;4968726;28;20188;-43
2021/12/16 08:43:06;;;;;;;5.57;5.07;;;14.90;63.10;16.00;102822.00;;;;4972014;28;20176;-42
2021/12/16 08:45:32;;;;;;;5.70;5.10;;;14.90;62.90;16.00;102811.00;;;;4971882;28;20216;-42
2021/12/16 08:47:59;;;;;;;5.93;5.43;;;14.90;63.10;16.00;102824.00;;;;4971750;28;20184;-44
2021/12/16 08:50:28;;;;;;;5.57;5.17;;;14.90;62.90;16.00;102821.00;;;;4971852;28;20192;-43
2021/12/16 08:52:54;;;;;;;5.83;5.33;;;14.80;62.90;16.00;102821.00;;;;4972124;28;20712;-43
2021/12/16 08:55:20;;;;;;;6.03;5.53;;;14.90;63.00;16.00;102816.00;;;;4971855;28;20252;-42
2021/12/16 08:57:46;;;;;;;5.00;4.60;;;14.80;62.90;16.00;102831.00;;;;4971559;28;20181;-43
2021/12/16 09:00:23;;;;;;;5.90;5.40;;;14.80;63.20;16.00;102844.00;;;;4971992;28;20197;-43
2021/12/16 09:02:49;;;;;;;5.70;5.20;;;14.80;63.10;16.00;102844.00;;;;4972011;28;20169;-43
2021/12/16 09:05:15;;;;;;;5.93;5.43;;;14.80;62.90;16.00;102847.00;;;;4971788;28;20417;-43
2021/12/16 09:07:45;;;;;;;5.40;5.00;;;14.80;62.90;16.00;102849.00;;;;4971824;28;20200;-42
2021/12/16 09:10:12;;;;;;;5.77;5.27;;;14.80;63.10;16.00;102859.00;;;;4971085;28;20181;-43
2021/12/16 09:12:51;;;;;;;5.70;5.20;;;14.80;62.90;16.00;102863.00;;;;4972088;28;20237;-43
2021/12/16 09:15:17;;;;;;;5.70;5.23;;;14.80;63.00;16.00;102863.00;;;;4971249;28;20602;-43
2021/12/16 09:17:43;;;;;;;5.80;5.30;;;14.80;63.40;16.00;102867.00;;;;4970485;28;20194;-43
2021/12/16 09:20:09;;;;;;;5.90;5.40;;;14.80;62.90;16.00;102861.00;;;;4971127;28;20209;-43
2021/12/16 09:22:34;;;;;;;5.93;5.40;;;14.80;63.00;16.00;102872.00;;;;4971226;28;20169;-43
2021/12/16 09:25:00;;;;;;;5.67;5.23;;;14.80;63.00;15.90;102870.00;;;;4969347;28;20197;-45
2021/12/16 09:27:27;;;;;;;5.70;5.20;;;14.80;63.00;16.00;102883.00;;;;4960946;28;20188;-42
2021/12/16 09:29:53;;;;;;;5.73;5.23;;;14.80;62.90;15.90;102877.00;;;;4973362;28;20180;-43
2021/12/16 09:32:18;;;;;;;5.83;5.33;;;14.80;63.00;15.90;102877.00;;;;4977575;28;20217;-45
2021/12/16 09:34:44;;;;;;;6.10;5.60;;;14.70;63.00;16.00;102885.00;;;;4973035;28;20200;-44
2021/12/16 09:37:10;;;;;;;5.97;5.47;;;14.80;63.10;15.90;102883.00;;;;4971108;28;20582;-43
2021/12/16 09:39:37;;;;;;;6.00;5.50;;;14.80;63.10;15.90;102889.00;;;;4971040;28;20248;-43
2021/12/16 09:42:06;;;;;;;5.87;5.23;;;14.80;63.30;15.90;102885.00;;;;4971381;28;20189;-43
2021/12/16 09:44:31;;;;;;;6.03;5.43;;;14.80;63.40;15.90;102901.00;;;;4970747;28;20189;-44
2021/12/16 09:46:59;;;;;;;6.00;5.50;;;14.80;63.40;15.90;102900.00;;;;4970823;28;20189;-44
2021/12/16 09:49:25;;;;;;;6.63;6.00;;;14.70;63.60;15.90;102907.00;;;;4968986;28;20185;-44
2021/12/16 09:51:52;;;;;;;6.07;5.57;;;14.70;63.40;15.90;102898.00;;;;4970917;28;20671;-43
2021/12/16 09:54:24;;;;;;;5.90;5.40;;;14.70;63.50;15.90;102906.00;;;;4970721;28;20280;-45
2021/12/16 09:56:50;;;;;;;6.37;5.60;;;14.80;63.70;15.90;102900.00;;;;4971089;28;20165;-44
2021/12/16 09:59:16;;;;;;;6.43;5.80;;;14.70;63.50;15.80;102904.00;;;;4968973;28;20702;-44
2021/12/16 10:01:44;;;;;;;6.90;6.20;;;14.80;63.40;15.90;102897.00;;;;4970613;28;20193;-45
2021/12/16 10:04:13;;;;;;;6.17;5.67;;;14.70;63.40;15.90;102907.00;;;;4970692;28;20192;-42
2021/12/16 10:06:40;;;;;;;6.37;5.77;;;14.70;63.50;15.90;102903.00;;;;4970977;28;20742;-41
2021/12/16 10:09:08;;;;;;;6.27;5.67;;;14.70;63.50;15.90;102898.00;;;;4970107;28;20264;-43
2021/12/16 10:11:36;;;;;;;6.30;5.80;;;14.70;63.60;15.90;102897.00;;;;4966681;28;20182;-43
2021/12/16 10:19:26;;;;;;;6.87;6.27;;;14.70;63.50;15.80;102890.00;;;;4951154;29;20204;-43
2021/12/16 10:21:53;;;;;;;6.70;6.10;;;14.70;63.40;15.80;102884.00;;;;4951409;28;20174;-43
2021/12/16 10:24:29;;;;;;;6.43;5.90;;;14.70;64.30;15.80;102879.00;;;;4950192;29;20201;-43
2021/12/16 10:27:27;;;;;;;6.80;6.20;;;14.70;63.70;15.80;102872.00;;;;4950607;29;20672;-43
2021/12/16 10:30:00;;;;;;;7.43;6.73;;;14.70;63.50;15.80;102866.00;;;;4938987;29;20193;-43
2021/12/16 10:32:46;;;;;;;6.90;6.30;;;14.70;63.60;15.80;102871.00;;;;4951297;28;20527;-43
2021/12/16 10:35:31;;;;;;;7.10;6.40;;;14.70;63.60;15.80;102873.00;;;;4951159;28;20208;-42
2021/12/16 10:38:02;;;;;;;7.33;6.70;;;14.70;63.70;15.80;102885.00;;;;4956220;29;20294;-44
2021/12/16 10:40:30;;;;;;;7.13;6.50;;;14.70;63.70;15.80;102869.00;;;;4952632;29;20707;-43
2021/12/16 10:42:57;;;;;;;6.87;6.20;;;14.70;63.70;15.80;102883.00;;;;4951311;28;20197;-44
2021/12/16 10:45:43;;;;;;;6.70;6.10;;;14.70;63.50;15.80;102876.00;;;;4951167;28;20337;-43
2021/12/16 10:48:12;;;;;;;7.20;6.60;;;14.70;63.50;15.70;102862.00;;;;4950185;28;20189;-42
2021/12/16 10:51:23;;;;;;;6.90;6.30;;;14.70;63.30;15.80;102878.00;;;;4950585;28;20170;-43
2021/12/16 10:53:54;;;;;;;6.77;6.27;;;14.70;63.70;15.70;102876.00;;;;4946868;28;20213;-43
2021/12/16 10:56:33;;;;;;;7.43;6.83;;;14.60;63.60;15.70;102880.00;;;;4950994;28;20189;-42
2021/12/16 10:59:02;;;;;;;6.90;6.30;;;14.70;63.60;15.80;102890.00;;;;4950584;28;20205;-43
2021/12/16 11:01:47;;;;;;;7.27;6.57;;;14.70;63.60;15.70;102885.00;;;;4949939;29;20217;-43
2021/12/16 11:04:20;;;;;;;6.90;6.17;;;14.70;63.60;15.70;102886.00;;;;4950199;28;20672;-44
2021/12/16 11:07:10;;;;;;;6.80;6.20;;;14.70;63.80;15.70;102885.00;;;;4951021;29;20538;-43
2021/12/16 11:09:45;;;;;;;6.70;6.10;;;14.60;63.40;15.70;102897.00;;;;4949711;29;20419;-43
2021/12/16 11:12:33;;;;;;;7.30;6.70;;;14.70;63.60;15.70;102899.00;;;;4950583;28;20575;-43
2021/12/16 11:15:19;;;;;;;6.40;5.80;;;14.60;63.70;15.70;102883.00;;;;4950636;29;20205;-42
2021/12/16 11:18:11;;;;;;;7.03;6.40;;;14.60;63.30;15.70;102890.00;;;;4950523;28;20185;-44
2021/12/16 11:20:47;;;;;;;6.77;6.17;;;14.60;63.20;15.70;102898.00;;;;4949788;29;20174;-43
2021/12/16 11:23:21;;;;;;;7.20;6.60;;;14.60;63.60;15.70;102900.00;;;;4949571;28;20279;-42
2021/12/16 11:25:59;;;;;;;7.27;6.57;;;14.60;63.60;15.70;102886.00;;;;4958793;28;20191;-43
2021/12/16 11:28:38;;;;;;;6.77;6.20;;;14.60;63.30;15.70;102900.00;;;;4967603;28;20184;-43
2021/12/16 11:31:12;;;;;;;7.07;6.37;;;14.60;63.50;15.70;102908.00;;;;4967488;28;20781;-43
2021/12/16 11:33:48;;;;;;;6.97;6.37;;;14.60;63.50;15.70;102897.00;;;;4969007;28;20711;-43
2021/12/16 11:36:23;;;;;;;6.40;5.83;;;14.60;63.30;15.70;102905.00;;;;4968272;28;20219;-42
2021/12/16 11:38:51;;;;;;;6.80;6.20;;;14.60;63.50;15.70;102897.00;;;;4969435;28;20192;-42
2021/12/16 11:41:29;;;;;;;7.50;6.80;;;14.60;63.60;15.70;102896.00;;;;4968694;28;20227;-42
2021/12/16 11:44:01;;;;;;;7.20;6.60;;;14.60;63.60;15.70;102901.00;;;;4969243;28;20220;-43
2021/12/16 11:46:41;;;;;;;7.03;6.43;;;14.60;63.30;15.70;102904.00;;;;4959486;28;20743;-43
2021/12/16 11:49:46;;;;;;;7.13;6.50;;;14.60;63.50;15.80;102901.00;;;;4969377;28;21014;-43
2021/12/16 11:52:20;;;;;;;7.10;6.50;;;14.60;63.50;15.70;102898.00;;;;4966445;28;20189;-45
2021/12/16 11:55:00;;;;;;;7.30;6.60;;;14.60;63.50;15.70;102898.00;;;;4969217;28;20667;-42
2021/12/16 11:57:36;;;;;;;7.23;6.60;;;14.60;63.50;15.70;102896.00;;;;4968964;28;20521;-42
2021/12/16 12:00:14;;;;;;;7.43;6.80;;;14.60;63.50;15.70;102897.00;;;;4968859;28;20244;-44
2021/12/16 12:02:49;;;;;;;8.27;7.13;;;14.60;63.60;15.70;102890.00;;;;4971545;28;20173;-42
2021/12/16 12:05:28;;;;;;;7.57;6.97;;;14.60;63.60;15.70;102889.00;;;;4977259;28;20267;-44
2021/12/16 12:08:11;;;;;;;7.83;7.03;;;14.60;63.60;15.70;102889.00;;;;4978563;28;20156;-43
2021/12/16 12:10:48;;;;;;;32.27;21.37;;;14.60;63.60;15.70;102897.00;;;;4973612;28;20209;-43
2021/12/16 12:13:26;;;;;;;20.83;16.60;;;14.20;65.60;15.50;102898.00;;;;4973251;28;20279;-42
2021/12/16 12:16:09;;;;;;;20.23;12.37;;;13.40;68.40;15.50;102882.00;;;;4953942;28;20621;-40
2021/12/16 12:18:55;;;;;;;16.17;10.83;;;13.70;68.40;15.50;102877.00;;;;4953824;29;20205;-41
2021/12/16 12:21:30;;;;;;;17.67;10.40;;;14.10;66.90;15.50;102880.00;;;;4953819;29;20201;-40
2021/12/16 12:23:58;;;;;;;14.43;9.93;;;14.20;66.10;15.50;102879.00;;;;4953462;29;20204;-39
2021/12/16 12:26:25;;;;;;;12.27;10.27;;;14.30;65.50;15.50;102895.00;;;;4953007;29;20519;-40
2021/12/16 12:28:55;;;;;;;14.80;9.87;;;14.40;65.40;15.50;102879.00;;;;4953552;29;20607;-40
2021/12/16 12:31:23;;;;;;;12.73;9.93;;;14.40;65.20;15.50;102882.00;;;;4953742;28;20177;-39
2021/12/16 12:33:48;;;;;;;11.30;9.50;;;14.50;64.90;15.50;102883.00;;;;4953690;28;20202;-40
2021/12/16 12:36:15;;;;;;;10.30;9.30;;;14.50;64.60;15.60;102887.00;;;;4953829;28;20208;-39
2021/12/16 12:38:41;;;;;;;10.87;9.00;;;14.50;64.60;15.60;102815.00;;;;4952520;28;20209;-39
2021/12/16 12:41:06;;;;;;;12.13;9.10;;;14.50;64.40;15.60;102878.00;;;;4965819;28;20173;-40
2021/12/16 12:43:35;;;;;;;13.03;9.47;;;14.50;64.60;15.60;102888.00;;;;4965227;28;20245;-40
2021/12/16 12:46:05;;;;;;;10.03;8.97;;;14.50;64.30;15.60;102887.00;;;;4953755;28;20178;-40
2021/12/16 12:48:33;;;;;;;10.10;8.63;;;14.50;64.30;15.60;102883.00;;;;4953935;28;20203;-41
2021/12/16 12:50:59;;;;;;;11.17;9.43;;;14.50;64.30;15.60;102896.00;;;;4953142;28;20183;-39
2021/12/16 12:53:35;;;;;;;10.50;9.17;;;14.50;64.40;15.60;102891.00;;;;4952840;28;20492;-41
2021/12/16 12:56:13;;;;;;;11.50;8.63;;;14.50;64.10;15.60;102887.00;;;;4953105;28;20161;-40
2021/12/16 12:59:01;;;;;;;10.50;8.53;;;14.50;64.00;15.60;102891.00;;;;4953281;28;20205;-40
2021/12/16 13:01:35;;;;;;;9.17;8.23;;;14.50;64.00;15.60;102881.00;;;;4953705;28;20398;-40
2021/12/16 13:04:05;;;;;;;9.73;8.63;;;14.50;64.10;15.60;102903.00;;;;4950905;28;20312;-40
2021/12/16 13:06:30;;;;;;;9.27;7.97;;;14.50;64.00;15.60;102890.00;;;;4953225;28;20550;-40
2021/12/16 13:08:56;;;;;;;8.83;7.93;;;14.50;63.80;15.60;102881.00;;;;4952951;28;20180;-39
2021/12/16 13:11:29;;;;;;;9.17;8.23;;;14.50;63.90;15.70;102879.00;;;;4954369;28;20247;-40
2021/12/16 13:14:09;;;;;;;10.67;8.87;;;14.50;64.00;15.70;102889.00;;;;4956400;28;20643;-40
2021/12/16 13:28:04;;;;;;;9.10;8.20;;;14.50;64.10;15.60;102876.00;;;;4952645;28;20434;-40
2021/12/16 13:30:33;;;;;;;8.87;7.97;;;14.50;63.60;15.70;102879.00;;;;4952736;28;20178;-40
2021/12/16 13:33:24;;;;;;;8.97;8.07;;;14.50;64.00;15.70;102876.00;;;;4952728;28;20264;-40
2021/12/16 13:36:17;;;;;;;9.27;8.37;;;14.60;64.30;15.40;102881.00;;;;4953051;28;20578;-40
2021/12/16 13:38:48;;;;;;;8.73;7.80;;;14.50;64.00;15.60;102878.00;;;;4951786;29;20217;-40
2021/12/16 13:41:23;;;;;;;9.30;7.90;;;14.50;64.00;15.70;102889.00;;;;4952602;28;20250;-40
2021/12/16 13:44:13;;;;;;;8.87;7.57;;;14.50;63.90;15.70;102909.00;;;;4952355;28;20472;-40